createdAt,value
2023-04-08T00:00:05.739Z,24.06
2023-04-08T00:02:41.153Z,24.67
2023-04-08T00:05:13.208Z,24.30
2023-04-08T00:07:44.522Z,24.62
2023-04-08T00:10:15.513Z,25.35
2023-04-08T00:12:46.729Z,25.58
2023-04-08T00:15:18.327Z,24.56
2023-04-08T00:17:55.877Z,23.49
2023-04-08T00:20:27.772Z,25.18
2023-04-08T00:23:01.848Z,24.74
2023-04-08T00:25:33.875Z,24.85
2023-04-08T00:28:06.025Z,24.63
2023-04-08T00:30:37.709Z,24.97
2023-04-08T00:33:11.554Z,24.57
2023-04-08T00:35:43.053Z,25.16
2023-04-08T00:38:14.345Z,25.42
2023-04-08T00:40:45.356Z,25.80
2023-04-08T00:43:18.158Z,25.17
2023-04-08T00:45:50.541Z,25.48
2023-04-08T00:48:22.147Z,25.07
2023-04-08T00:50:53.781Z,25.27
2023-04-08T00:53:25.806Z,25.70
2023-04-08T00:55:57.061Z,25.80
2023-04-08T00:58:28.712Z,25.02
2023-04-08T01:01:06.102Z,24.73
2023-04-08T01:04:05.186Z,25.58
2023-04-08T01:06:48.573Z,25.90
2023-04-08T01:09:22.098Z,25.36
2023-04-08T01:11:54.565Z,25.18
2023-04-08T01:14:28.884Z,25.29
2023-04-08T01:17:01.809Z,25.08
2023-04-08T01:19:39.992Z,25.11
2023-04-08T01:22:36.991Z,25.11
2023-04-08T01:25:14.985Z,25.00
2023-04-08T01:27:46.923Z,24.64
2023-04-08T01:30:20.749Z,24.65
2023-04-08T01:32:53.837Z,24.64
2023-04-08T01:35:26.775Z,24.14
2023-04-08T01:37:58.453Z,24.29
2023-04-08T01:40:29.525Z,24.08
2023-04-08T01:43:01.895Z,24.19
2023-04-08T01:45:33.462Z,23.43
2023-04-08T01:48:05.280Z,23.45
2023-04-08T01:50:36.954Z,23.60
2023-04-08T01:53:08.762Z,23.27
2023-04-08T01:55:41.862Z,23.33
2023-04-08T01:58:16.416Z,23.50
2023-04-08T02:00:47.992Z,24.21
2023-04-08T02:03:20.389Z,24.47
2023-04-08T02:05:52.388Z,24.82
2023-04-08T02:08:23.825Z,24.56
2023-04-08T02:10:55.024Z,24.84
2023-04-08T02:13:26.468Z,25.37
2023-04-08T02:16:12.965Z,25.12
2023-04-08T02:18:50.512Z,25.46
2023-04-08T02:21:25.347Z,25.63
2023-04-08T02:23:57.322Z,25.73
2023-04-08T02:26:29.036Z,25.37
2023-04-08T02:29:00.495Z,25.96
2023-04-08T02:31:31.119Z,25.60
2023-04-08T02:34:02.818Z,26.71
2023-04-08T02:36:35.824Z,27.02
2023-04-08T02:39:07.756Z,27.33
2023-04-08T02:41:38.887Z,27.41
2023-04-08T02:44:10.864Z,27.44
2023-04-08T02:46:44.721Z,26.83
2023-04-08T02:49:16.199Z,26.63
2023-04-08T02:51:47.533Z,27.15
2023-04-08T02:54:19.163Z,27.13
2023-04-08T02:56:51.387Z,27.26
2023-04-08T02:59:22.585Z,26.59
2023-04-08T03:01:56.453Z,27.28
2023-04-08T03:04:28.226Z,26.93
2023-04-08T03:07:00.322Z,27.70
2023-04-08T03:09:31.509Z,27.48
2023-04-08T03:12:02.467Z,26.66
2023-04-08T03:14:33.490Z,26.85
2023-04-08T03:17:04.674Z,27.22
2023-04-08T03:19:36.221Z,27.22
2023-04-08T03:22:06.898Z,27.28
2023-04-08T03:24:39.110Z,26.98
2023-04-08T03:27:10.837Z,26.60
2023-04-08T03:29:42.496Z,26.43
2023-04-08T03:32:13.462Z,26.29
2023-04-08T03:34:44.840Z,25.72
2023-04-08T03:37:15.515Z,25.15
2023-04-08T03:39:47.738Z,24.72
2023-04-08T03:42:19.627Z,24.66
2023-04-08T03:44:50.785Z,24.28
2023-04-08T03:47:22.484Z,24.28
2023-04-08T03:49:55.011Z,24.42
2023-04-08T03:52:27.615Z,24.44
2023-04-08T03:54:59.255Z,24.40
2023-04-08T03:57:30.721Z,24.61
2023-04-08T04:00:01.300Z,24.12
2023-04-08T04:02:43.012Z,24.32
2023-04-08T04:05:13.459Z,23.96
2023-04-08T04:07:44.942Z,23.97
2023-04-08T04:10:15.698Z,23.95
2023-04-08T04:12:47.620Z,23.78
2023-04-08T04:15:18.974Z,23.32
2023-04-08T04:17:52.789Z,23.32
2023-04-08T04:20:27.450Z,23.21
2023-04-08T04:22:58.672Z,23.33
2023-04-08T04:25:29.985Z,23.39
2023-04-08T04:28:01.089Z,23.19
2023-04-08T04:30:32.289Z,23.41
2023-04-08T04:33:03.695Z,23.54
2023-04-08T04:35:34.775Z,23.22
2023-04-08T04:38:09.463Z,23.27
2023-04-08T04:40:41.266Z,23.22
2023-04-08T04:43:13.042Z,23.36
2023-04-08T04:45:44.413Z,23.38
2023-04-08T04:48:16.008Z,23.42
2023-04-08T04:50:47.527Z,23.37
2023-04-08T04:53:19.013Z,23.17
2023-04-08T04:55:50.303Z,23.03
2023-04-08T04:58:21.795Z,23.10
2023-04-08T05:00:53.497Z,23.08
2023-04-08T05:03:25.105Z,23.08
2023-04-08T05:05:56.914Z,22.93
2023-04-08T05:08:30.135Z,22.97
2023-04-08T05:11:05.295Z,22.95
2023-04-08T05:13:36.731Z,22.86
2023-04-08T05:16:08.522Z,22.61
2023-04-08T05:18:39.778Z,22.55
2023-04-08T05:21:10.797Z,22.68
2023-04-08T05:23:42.125Z,22.70
2023-04-08T05:26:14.704Z,22.46
2023-04-08T05:28:47.300Z,22.28
2023-04-08T05:31:22.084Z,22.24
2023-04-08T05:33:53.690Z,22.11
2023-04-08T05:36:24.793Z,22.03
2023-04-08T05:38:58.932Z,22.02
2023-04-08T05:41:30.094Z,21.81
2023-04-08T05:44:01.112Z,21.68
2023-04-08T05:46:32.201Z,21.70
2023-04-08T05:49:03.188Z,21.70
2023-04-08T05:51:34.462Z,21.51
2023-04-08T05:54:05.038Z,21.40
2023-04-08T05:56:36.610Z,21.38
2023-04-08T05:59:07.252Z,21.25
2023-04-08T06:01:38.222Z,21.29
2023-04-08T06:04:09.811Z,21.16
2023-04-08T06:06:44.101Z,21.00
2023-04-08T06:09:16.512Z,20.94
2023-04-08T06:11:48.771Z,20.84
2023-04-08T06:14:19.999Z,20.65
2023-04-08T06:16:51.773Z,20.79
2023-04-08T06:19:22.359Z,20.74
2023-04-08T06:21:53.660Z,20.68
2023-04-08T06:24:25.308Z,20.60
2023-04-08T06:26:59.604Z,20.39
2023-04-08T06:29:31.562Z,20.47
2023-04-08T06:32:03.031Z,20.31
2023-04-08T06:34:34.324Z,20.12
2023-04-08T06:37:05.936Z,20.16
2023-04-08T06:39:37.890Z,20.11
2023-04-08T06:42:09.364Z,20.15
2023-04-08T06:44:58.124Z,20.01
2023-04-08T06:47:29.442Z,20.07
2023-04-08T06:50:00.942Z,19.97
2023-04-08T06:52:32.802Z,19.96
2023-04-08T06:55:04.272Z,20.01
2023-04-08T06:57:35.796Z,19.71
2023-04-08T07:00:07.072Z,19.88
2023-04-08T07:02:38.196Z,19.81
2023-04-08T07:05:10.572Z,19.78
2023-04-08T07:07:41.083Z,19.72
2023-04-08T07:10:13.282Z,19.78
2023-04-08T07:12:44.610Z,19.68
2023-04-08T07:15:15.695Z,19.74
2023-04-08T07:17:46.836Z,19.60
2023-04-08T07:20:17.905Z,19.63
2023-04-08T07:22:49.125Z,19.58
2023-04-08T07:25:20.324Z,19.52
2023-04-08T07:28:01.300Z,19.42
2023-04-08T07:30:32.752Z,19.49
2023-04-08T07:33:04.253Z,19.42
2023-04-08T07:35:36.301Z,19.35
2023-04-08T07:38:12.934Z,19.30
2023-04-08T07:40:44.405Z,19.23
2023-04-08T07:43:15.740Z,19.17
2023-04-08T07:45:46.823Z,19.25
2023-04-08T07:48:18.112Z,19.14
2023-04-08T07:51:08.991Z,19.08
2023-04-08T07:53:41.714Z,19.05
2023-04-08T07:56:14.520Z,18.87
2023-04-08T07:58:45.836Z,18.37
2023-04-08T08:01:24.963Z,18.16
2023-04-08T08:03:56.556Z,17.93
2023-04-08T08:06:29.034Z,18.26
2023-04-08T08:09:00.601Z,18.25
2023-04-08T08:11:32.353Z,17.92
2023-04-08T08:14:03.559Z,17.68
2023-04-08T08:16:35.230Z,17.78
2023-04-08T08:19:08.655Z,17.80
2023-04-08T08:21:41.093Z,17.87
2023-04-08T08:24:12.317Z,17.70
2023-04-08T08:26:43.258Z,17.60
2023-04-08T08:29:14.523Z,17.61
2023-04-08T08:31:45.654Z,17.45
2023-04-08T08:34:17.988Z,17.46
2023-04-08T08:36:48.346Z,17.67
2023-04-08T08:39:19.684Z,17.86
2023-04-08T08:41:51.418Z,17.82
2023-04-08T08:44:22.480Z,17.73
2023-04-08T08:46:53.970Z,17.67
2023-04-08T08:49:25.700Z,17.53
2023-04-08T08:51:57.701Z,17.42
2023-04-08T08:54:29.320Z,17.44
2023-04-08T08:57:00.411Z,17.43
2023-04-08T08:59:31.493Z,17.32
2023-04-08T09:02:02.935Z,17.35
2023-04-08T09:04:34.495Z,17.22
2023-04-08T09:07:13.274Z,17.06
2023-04-08T09:09:51.822Z,17.06
2023-04-08T09:12:23.730Z,17.14
2023-04-08T09:14:54.878Z,17.34
2023-04-08T09:17:37.560Z,17.24
2023-04-08T09:20:13.748Z,17.17
2023-04-08T09:23:00.760Z,16.90
2023-04-08T09:25:34.216Z,16.82
2023-04-08T09:28:05.788Z,17.11
2023-04-08T09:30:37.009Z,16.91
2023-04-08T09:33:09.052Z,17.00
2023-04-08T09:35:40.790Z,16.79
2023-04-08T09:38:12.996Z,16.48
2023-04-08T09:40:45.484Z,16.45
2023-04-08T09:43:23.041Z,16.47
2023-04-08T09:45:55.161Z,16.68
2023-04-08T09:48:30.040Z,16.62
2023-04-08T09:51:02.367Z,16.59
2023-04-08T09:53:37.729Z,16.30
2023-04-08T09:56:11.540Z,16.28
2023-04-08T09:58:55.071Z,16.34
2023-04-08T10:01:42.507Z,16.08
2023-04-08T10:04:19.033Z,16.23
2023-04-08T10:06:59.994Z,16.27
2023-04-08T10:09:31.278Z,16.25
2023-04-08T10:12:03.134Z,15.96
2023-04-08T10:14:35.077Z,15.70
2023-04-08T10:17:29.041Z,15.64
2023-04-08T10:20:00.192Z,15.85
2023-04-08T10:22:35.626Z,15.75
2023-04-08T10:25:19.019Z,15.50
2023-04-08T10:27:50.283Z,15.58
2023-04-08T10:30:32.531Z,15.75
2023-04-08T10:33:03.562Z,15.35
2023-04-08T10:35:48.110Z,15.43
2023-04-08T10:38:19.803Z,15.51
2023-04-08T10:40:52.790Z,15.29
2023-04-08T10:43:25.711Z,15.03
2023-04-08T10:45:57.005Z,15.33
2023-04-08T10:48:30.680Z,15.36
2023-04-08T10:51:06.333Z,15.17
2023-04-08T10:53:39.360Z,15.18
2023-04-08T10:56:12.406Z,15.07
2023-04-08T10:58:58.187Z,14.98
2023-04-08T11:01:30.080Z,14.71
2023-04-08T11:04:02.257Z,14.51
2023-04-08T11:06:34.707Z,14.63
2023-04-08T11:09:06.403Z,14.52
2023-04-08T11:11:37.917Z,14.27
2023-04-08T11:14:09.702Z,14.52
2023-04-08T11:16:44.727Z,14.48
2023-04-08T11:19:18.436Z,14.51
2023-04-08T11:21:50.992Z,14.60
2023-04-08T11:24:23.892Z,14.42
2023-04-08T11:26:54.849Z,14.28
2023-04-08T11:29:26.340Z,14.20
2023-04-08T11:31:57.608Z,14.49
2023-04-08T11:34:29.806Z,14.57
2023-04-08T11:37:01.191Z,14.55
2023-04-08T11:39:32.385Z,14.34
2023-04-08T11:42:03.591Z,14.39
2023-04-08T11:44:35.222Z,14.02
2023-04-08T11:47:06.506Z,14.03
2023-04-08T11:49:48.044Z,13.86
2023-04-08T11:52:19.350Z,14.13
2023-04-08T11:54:51.313Z,14.26
2023-04-08T11:57:31.942Z,14.08
2023-04-08T12:00:03.257Z,13.91
2023-04-08T12:02:41.244Z,13.82
2023-04-08T12:05:13.536Z,13.86
2023-04-08T12:07:45.731Z,13.76
2023-04-08T12:10:17.165Z,13.68
2023-04-08T12:12:48.611Z,13.42
2023-04-08T12:15:20.273Z,13.31
2023-04-08T12:17:52.477Z,13.37
2023-04-08T12:20:23.769Z,13.27
2023-04-08T12:22:54.552Z,13.20
2023-04-08T12:25:26.057Z,13.35
2023-04-08T12:27:57.136Z,13.16
2023-04-08T12:30:28.104Z,13.15
2023-04-08T12:32:59.791Z,12.99
2023-04-08T12:35:31.368Z,13.13
2023-04-08T12:38:03.615Z,13.02
2023-04-08T12:40:34.704Z,13.10
2023-04-08T12:43:05.935Z,13.12
2023-04-08T12:45:37.964Z,13.17
2023-04-08T12:48:09.325Z,13.32
2023-04-08T12:50:40.984Z,13.10
2023-04-08T12:53:12.724Z,12.92
2023-04-08T12:55:44.766Z,12.96
2023-04-08T12:58:19.096Z,12.89
2023-04-08T13:00:51.514Z,12.64
2023-04-08T13:03:23.104Z,12.76
2023-04-08T13:05:53.922Z,12.66
2023-04-08T13:08:25.224Z,12.63
2023-04-08T13:10:56.997Z,12.68
2023-04-08T13:13:28.304Z,12.61
2023-04-08T13:15:59.435Z,12.37
2023-04-08T13:18:30.556Z,12.64
2023-04-08T13:21:02.244Z,12.49
2023-04-08T13:23:33.554Z,12.55
2023-04-08T13:26:04.782Z,12.47
2023-04-08T13:28:40.823Z,12.53
2023-04-08T13:31:22.052Z,12.48
2023-04-08T13:33:56.064Z,12.25
2023-04-08T13:36:33.045Z,12.45
2023-04-08T13:39:04.346Z,12.39
2023-04-08T13:41:36.483Z,12.28
2023-04-08T13:44:07.177Z,12.15
2023-04-08T13:46:38.657Z,12.06
2023-04-08T13:49:11.069Z,12.05
2023-04-08T13:51:42.304Z,12.05
2023-04-08T13:54:13.820Z,11.98
2023-04-08T13:56:45.521Z,11.79
2023-04-08T13:59:17.157Z,11.99
2023-04-08T14:01:48.566Z,11.83
2023-04-08T14:04:19.919Z,11.68
2023-04-08T14:06:52.985Z,11.64
2023-04-08T14:09:24.130Z,11.81
2023-04-08T14:11:55.654Z,11.60
2023-04-08T14:14:26.891Z,11.47
2023-04-08T14:16:58.517Z,11.55
2023-04-08T14:19:29.648Z,11.46
2023-04-08T14:22:04.053Z,11.77
2023-04-08T14:24:36.966Z,11.55
2023-04-08T14:27:08.136Z,11.13
2023-04-08T14:29:39.663Z,11.15
2023-04-08T14:32:10.759Z,11.22
2023-04-08T14:34:41.964Z,11.22
2023-04-08T14:37:13.806Z,11.45
2023-04-08T14:39:46.046Z,11.13
2023-04-08T14:42:18.824Z,11.18
2023-04-08T14:44:50.391Z,11.19
2023-04-08T14:47:21.886Z,11.37
2023-04-08T14:49:53.074Z,11.23
2023-04-08T14:52:24.697Z,11.24
2023-04-08T14:54:55.384Z,11.13
2023-04-08T14:57:27.119Z,11.17
2023-04-08T14:59:58.349Z,11.12
2023-04-08T15:02:29.678Z,11.31
2023-04-08T15:05:00.849Z,11.52
2023-04-08T15:07:32.161Z,11.34
2023-04-08T15:10:03.339Z,11.07
2023-04-08T15:12:34.987Z,11.16
2023-04-08T15:15:06.878Z,11.06
2023-04-08T15:17:38.299Z,11.28
2023-04-08T15:20:11.433Z,11.28
2023-04-08T15:22:42.830Z,11.09
2023-04-08T15:25:14.375Z,11.16
2023-04-08T15:27:45.347Z,11.15
2023-04-08T15:30:16.835Z,11.32
2023-04-08T15:32:48.084Z,11.12
2023-04-08T15:35:19.441Z,10.94
2023-04-08T15:37:50.858Z,10.98
2023-04-08T15:40:22.183Z,10.88
2023-04-08T15:42:54.427Z,10.76
2023-04-08T15:45:25.971Z,11.01
2023-04-08T15:47:57.168Z,11.00
2023-04-08T15:50:32.042Z,10.85
2023-04-08T15:53:03.410Z,10.95
2023-04-08T15:55:38.891Z,10.90
2023-04-08T15:58:10.423Z,10.79
2023-04-08T16:00:41.971Z,10.62
2023-04-08T16:03:14.251Z,10.49
2023-04-08T16:05:45.921Z,10.35
2023-04-08T16:08:17.653Z,10.46
2023-04-08T16:10:48.818Z,10.49
2023-04-08T16:13:20.091Z,10.71
2023-04-08T16:15:52.120Z,10.47
2023-04-08T16:18:23.634Z,10.70
2023-04-08T16:20:55.347Z,10.66
2023-04-08T16:23:26.748Z,10.46
2023-04-08T16:25:58.285Z,10.47
2023-04-08T16:28:29.729Z,10.45
2023-04-08T16:31:00.722Z,10.37
2023-04-08T16:33:32.465Z,10.58
2023-04-08T16:36:05.858Z,10.61
2023-04-08T16:38:37.129Z,10.39
2023-04-08T16:41:11.531Z,10.36
2023-04-08T16:43:42.986Z,10.41
2023-04-08T16:46:23.708Z,10.36
2023-04-08T16:48:55.208Z,10.49
2023-04-08T16:51:26.393Z,10.39
2023-04-08T16:53:59.203Z,10.41
2023-04-08T16:56:31.222Z,10.33
2023-04-08T16:59:02.672Z,10.28
2023-04-08T17:01:34.125Z,10.17
2023-04-08T17:04:05.871Z,10.11
2023-04-08T17:06:37.817Z,9.98
2023-04-08T17:09:08.567Z,10.11
2023-04-08T17:11:39.797Z,10.22
2023-04-08T17:14:11.498Z,10.19
2023-04-08T17:16:42.903Z,10.13
2023-04-08T17:19:14.327Z,10.11
2023-04-08T17:21:46.500Z,10.18
2023-04-08T17:24:17.841Z,10.15
2023-04-08T17:26:49.490Z,10.14
2023-04-08T17:29:20.263Z,10.12
2023-04-08T17:31:51.419Z,9.89
2023-04-08T17:34:23.036Z,10.01
2023-04-08T17:36:54.462Z,9.88
2023-04-08T17:39:25.689Z,9.97
2023-04-08T17:41:58.594Z,9.94
2023-04-08T17:44:31.455Z,9.91
2023-04-08T17:47:03.218Z,10.03
2023-04-08T17:49:34.200Z,9.89
2023-04-08T17:52:05.406Z,9.89
2023-04-08T17:54:36.747Z,9.66
2023-04-08T17:57:07.925Z,9.77
2023-04-08T17:59:39.078Z,9.72
2023-04-08T18:02:10.340Z,9.71
2023-04-08T18:04:42.919Z,9.55
2023-04-08T18:07:14.072Z,9.57
2023-04-08T18:09:45.136Z,9.54
2023-04-08T18:12:16.131Z,9.66
2023-04-08T18:14:47.449Z,9.78
2023-04-08T18:17:18.332Z,9.59
2023-04-08T18:19:49.472Z,9.74
2023-04-08T18:22:24.710Z,9.53
2023-04-08T18:24:56.027Z,9.58
2023-04-08T18:27:27.670Z,9.66
2023-04-08T18:29:59.145Z,9.56
2023-04-08T18:32:30.636Z,9.61
2023-04-08T18:35:01.700Z,9.59
2023-04-08T18:37:33.784Z,9.57
2023-04-08T18:40:05.529Z,9.47
2023-04-08T18:42:36.988Z,9.22
2023-04-08T18:45:08.610Z,9.13
2023-04-08T18:47:39.621Z,9.42
2023-04-08T18:50:11.381Z,9.63
2023-04-08T18:52:43.507Z,9.37
2023-04-08T18:55:14.604Z,9.33
2023-04-08T18:57:46.217Z,9.49
2023-04-08T19:00:17.548Z,9.56
2023-04-08T19:02:48.662Z,9.55
2023-04-08T19:05:19.941Z,9.71
2023-04-08T19:07:51.327Z,9.71
2023-04-08T19:10:25.143Z,9.75
2023-04-08T19:12:56.522Z,10.64
2023-04-08T19:15:30.044Z,12.02
2023-04-08T19:18:02.071Z,13.03
2023-04-08T19:20:36.050Z,13.38
2023-04-08T19:23:09.720Z,13.41
2023-04-08T19:25:41.371Z,13.48
2023-04-08T19:28:14.835Z,14.12
2023-04-08T19:30:46.719Z,14.44
2023-04-08T19:33:17.984Z,14.52
2023-04-08T19:35:51.044Z,14.32
2023-04-08T19:38:22.452Z,15.20
2023-04-08T19:40:53.656Z,15.09
2023-04-08T19:43:25.054Z,15.67
2023-04-08T19:45:56.984Z,15.26
2023-04-08T19:48:27.791Z,15.11
2023-04-08T19:50:59.004Z,14.61
2023-04-08T19:53:30.277Z,14.48
2023-04-08T19:56:05.014Z,14.48
2023-04-08T19:58:36.212Z,14.77
2023-04-08T20:01:08.717Z,14.59
2023-04-08T20:03:39.846Z,15.54
2023-04-08T20:06:11.634Z,15.07
2023-04-08T20:08:43.117Z,15.27
2023-04-08T20:11:14.798Z,15.85
2023-04-08T20:13:46.281Z,15.58
2023-04-08T20:16:17.973Z,16.04
2023-04-08T20:18:49.523Z,16.38
2023-04-08T20:21:21.078Z,16.30
2023-04-08T20:23:53.393Z,16.81
2023-04-08T20:26:24.279Z,16.24
2023-04-08T20:28:58.015Z,17.03
2023-04-08T20:31:29.819Z,17.22
2023-04-08T20:34:01.853Z,16.78
2023-04-08T20:36:34.281Z,17.12
2023-04-08T20:39:06.219Z,17.76
2023-04-08T20:41:37.748Z,17.98
2023-04-08T20:44:11.157Z,18.18
2023-04-08T20:46:42.756Z,18.55
2023-04-08T20:49:14.074Z,18.67
2023-04-08T20:51:46.682Z,18.92
2023-04-08T20:54:17.948Z,19.00
2023-04-08T20:56:48.804Z,19.39
2023-04-08T20:59:19.860Z,19.36
2023-04-08T21:01:50.875Z,19.44
2023-04-08T21:04:23.833Z,19.62
2023-04-08T21:06:55.088Z,19.34
2023-04-08T21:09:26.519Z,19.90
2023-04-08T21:11:57.770Z,19.82
2023-04-08T21:14:28.678Z,19.79
2023-04-08T21:17:00.097Z,20.13
2023-04-08T21:19:31.698Z,20.34
2023-04-08T21:22:02.716Z,19.71
2023-04-08T21:24:34.230Z,20.60
2023-04-08T21:27:05.339Z,20.83
2023-04-08T21:29:36.848Z,19.42
2023-04-08T21:32:08.879Z,19.79
2023-04-08T21:34:40.323Z,20.15
2023-04-08T21:37:11.396Z,20.75
2023-04-08T21:39:42.818Z,20.81
2023-04-08T21:42:14.038Z,21.47
2023-04-08T21:44:45.507Z,21.30
2023-04-08T21:47:17.466Z,21.26
2023-04-08T21:49:47.997Z,21.81
2023-04-08T21:52:19.474Z,21.63
2023-04-08T21:54:53.588Z,21.23
2023-04-08T21:57:24.832Z,22.06
2023-04-08T21:59:56.216Z,22.43
2023-04-08T22:02:27.700Z,22.63
2023-04-08T22:04:59.796Z,21.93
2023-04-08T22:07:30.097Z,22.63
2023-04-08T22:10:02.177Z,21.63
2023-04-08T22:12:33.649Z,22.38
2023-04-08T22:15:06.178Z,23.63
2023-04-08T22:17:37.868Z,23.25
2023-04-08T22:20:09.279Z,23.31
2023-04-08T22:22:39.938Z,22.59
2023-04-08T22:25:12.183Z,23.31
2023-04-08T22:27:43.617Z,23.19
2023-04-08T22:30:14.481Z,22.48
2023-04-08T22:32:45.695Z,23.21
2023-04-08T22:35:17.029Z,23.09
2023-04-08T22:37:48.068Z,24.63
2023-04-08T22:40:19.439Z,25.04
2023-04-08T22:42:50.366Z,25.53
2023-04-08T22:45:22.049Z,24.40
2023-04-08T22:47:52.619Z,24.42
2023-04-08T22:50:24.563Z,25.45
2023-04-08T22:52:56.160Z,22.89
2023-04-08T22:55:27.665Z,24.69
2023-04-08T22:57:58.685Z,24.37
2023-04-08T23:00:30.320Z,25.08
2023-04-08T23:03:05.491Z,24.34
2023-04-08T23:05:36.916Z,24.76
2023-04-08T23:08:08.188Z,24.55
2023-04-08T23:10:39.444Z,23.55
2023-04-08T23:13:10.375Z,24.02
2023-04-08T23:15:41.524Z,24.55
2023-04-08T23:18:12.687Z,21.88
2023-04-08T23:20:45.112Z,21.61
2023-04-08T23:23:16.191Z,22.83
2023-04-08T23:25:49.052Z,23.40
2023-04-08T23:28:20.342Z,22.75
2023-04-08T23:30:51.353Z,24.11
2023-04-08T23:33:22.632Z,24.06
2023-04-08T23:35:53.511Z,23.44
2023-04-08T23:38:24.994Z,22.59
2023-04-08T23:40:55.981Z,22.44
2023-04-08T23:43:27.344Z,21.93
2023-04-08T23:45:58.558Z,22.44
2023-04-08T23:48:29.780Z,22.93
2023-04-08T23:51:01.059Z,22.38
2023-04-08T23:53:32.399Z,23.18
2023-04-08T23:56:08.184Z,23.46
2023-04-08T23:58:40.028Z,24.19
